createdAt,value
2023-01-01T00:23:44.418Z,6
2023-01-01T00:25:35.618Z,6
2023-01-01T00:28:40.944Z,6
2023-01-01T00:31:46.332Z,6
2023-01-01T00:33:37.443Z,6
2023-01-01T00:49:41.506Z,6
2023-01-01T00:50:55.647Z,6
2023-01-01T00:57:06.314Z,6
2023-01-01T01:05:45.259Z,7
2023-01-01T01:10:41.786Z,8
2023-01-01T02:42:44.489Z,2
2023-01-01T02:45:49.886Z,2
2023-01-01T02:46:26.860Z,2
2023-01-01T02:48:55.146Z,2
2023-01-01T02:52:37.480Z,2
2023-01-01T03:03:08.086Z,2
2023-01-01T03:08:04.542Z,2
2023-01-01T03:14:15.170Z,2
2023-01-01T03:22:54.120Z,2
2023-01-01T03:24:08.235Z,2
2023-01-01T03:25:22.381Z,2
2023-01-01T03:30:18.892Z,2
2023-01-01T03:57:32.184Z,2
2023-01-01T03:59:19.449Z,2
2023-01-01T04:00:19.451Z,2
2023-01-01T04:01:19.516Z,2
2023-01-01T04:02:19.497Z,2
2023-01-01T04:03:19.523Z,2
2023-01-01T04:04:19.475Z,2
2023-01-01T04:05:19.471Z,2
2023-01-01T04:08:19.502Z,2
2023-01-01T04:13:19.465Z,2
2023-01-01T04:17:19.469Z,2
2023-01-01T04:18:19.478Z,2
2023-01-01T04:19:19.478Z,2
2023-01-01T04:20:19.467Z,2
2023-01-01T04:21:19.460Z,2
2023-01-01T04:22:19.469Z,2
2023-01-01T04:23:19.470Z,2
2023-01-01T04:24:19.457Z,2
2023-01-01T04:26:19.467Z,2
2023-01-01T04:31:19.470Z,2
2023-01-01T04:32:19.462Z,2
2023-01-01T04:33:19.482Z,2
2023-01-01T04:34:19.479Z,2
2023-01-01T04:35:19.527Z,2
2023-01-01T04:36:19.469Z,2
2023-01-01T04:45:19.521Z,2
2023-01-01T04:46:19.528Z,2
2023-01-01T04:47:19.518Z,2
2023-01-01T04:49:19.520Z,2
2023-01-01T04:53:19.523Z,2
2023-01-01T04:56:19.614Z,2
2023-01-01T04:57:19.638Z,2
2023-01-01T04:58:19.608Z,2
2023-01-01T04:59:19.605Z,2
2023-01-01T05:00:19.619Z,3
2023-01-01T05:01:19.794Z,2
2023-01-01T05:02:19.862Z,3
2023-01-01T05:03:19.613Z,3
2023-01-01T05:04:19.612Z,2
2023-01-01T05:05:19.631Z,2
2023-01-01T05:07:19.623Z,2
2023-01-01T05:08:19.609Z,3
2023-01-01T05:09:19.620Z,2
2023-01-01T05:10:19.618Z,2
2023-01-01T05:11:19.808Z,2
2023-01-01T05:17:30.466Z,2
2023-01-01T05:18:44.546Z,2
2023-01-01T05:23:41.037Z,2
2023-01-01T05:30:28.720Z,2
2023-01-01T05:32:20.296Z,2
2023-01-01T05:34:48.562Z,2
2023-01-01T05:37:16.822Z,2
2023-01-01T05:39:45.103Z,2
2023-01-01T05:44:41.630Z,2
2023-01-01T05:48:19.500Z,2
2023-01-01T05:49:19.504Z,2
2023-01-01T05:50:19.540Z,2
2023-01-01T05:54:19.503Z,2
2023-01-01T05:55:19.504Z,2
2023-01-01T05:57:19.526Z,2
2023-01-01T05:58:19.522Z,2
2023-01-01T06:02:19.559Z,2
2023-01-01T06:03:19.503Z,2
2023-01-01T06:04:19.560Z,2
2023-01-01T06:06:19.520Z,2
2023-01-01T06:07:19.527Z,2
2023-01-01T06:08:19.511Z,2
2023-01-01T06:09:19.557Z,2
2023-01-01T06:10:19.514Z,2
2023-01-01T06:11:19.503Z,2
2023-01-01T06:12:19.510Z,2
2023-01-01T06:13:19.505Z,2
2023-01-01T06:14:19.506Z,2
2023-01-01T06:15:19.527Z,2
2023-01-01T06:16:19.526Z,2
2023-01-01T06:17:19.520Z,2
2023-01-01T06:18:19.515Z,2
2023-01-01T06:19:19.513Z,2
2023-01-01T06:20:19.514Z,2
2023-01-01T06:21:19.516Z,2
2023-01-01T06:22:19.514Z,2
2023-01-01T06:23:19.524Z,2
2023-01-01T06:24:19.506Z,2
2023-01-01T06:25:19.527Z,2
2023-01-01T06:26:19.526Z,2
2023-01-01T06:27:19.570Z,2
2023-01-01T06:28:19.598Z,2
2023-01-01T06:29:19.563Z,2
2023-01-01T06:30:19.558Z,2
2023-01-01T06:31:19.673Z,2
2023-01-01T06:32:19.567Z,2
2023-01-01T06:33:19.568Z,2
2023-01-01T06:34:19.575Z,2
2023-01-01T06:35:19.566Z,2
2023-01-01T06:36:19.606Z,2
2023-01-01T06:37:19.575Z,2
2023-01-01T06:38:19.565Z,2
2023-01-01T06:39:19.563Z,2
2023-01-01T06:40:19.576Z,2
2023-01-01T06:41:19.639Z,2
2023-01-01T06:42:19.563Z,2
2023-01-01T06:43:19.689Z,2
2023-01-01T06:44:19.687Z,2
2023-01-01T06:45:19.654Z,2
2023-01-01T06:46:19.719Z,2
2023-01-01T06:47:19.655Z,2
2023-01-01T06:48:19.716Z,2
2023-01-01T06:50:19.658Z,2
2023-01-01T06:51:19.666Z,2
2023-01-01T06:52:19.661Z,2
2023-01-01T06:53:19.660Z,2
2023-01-01T06:54:19.672Z,2
2023-01-01T06:55:19.721Z,2
2023-01-01T06:56:19.665Z,2
2023-01-01T06:57:19.655Z,2
2023-01-01T06:58:19.656Z,2
2023-01-01T06:59:19.865Z,2
2023-01-01T07:03:02.429Z,2
2023-01-01T07:05:30.475Z,2
2023-01-01T07:06:44.591Z,2
2023-01-01T07:09:49.897Z,2
2023-01-01T07:11:41.129Z,2
2023-01-01T07:16:00.631Z,2
2023-01-01T07:19:43.278Z,2
2023-01-01T07:25:19.530Z,2
2023-01-01T07:26:19.538Z,2
2023-01-01T07:27:19.587Z,2
2023-01-01T07:28:19.529Z,2
2023-01-01T07:29:19.576Z,2
2023-01-01T07:30:19.539Z,2
2023-01-01T07:31:19.566Z,2
2023-01-01T07:32:19.535Z,2
2023-01-01T07:33:19.556Z,2
2023-01-01T07:34:19.540Z,2
2023-01-01T07:35:19.541Z,2
2023-01-01T07:36:19.540Z,2
2023-01-01T07:37:19.543Z,2
2023-01-01T07:38:19.542Z,2
2023-01-01T07:39:19.538Z,2
2023-01-01T07:40:19.539Z,2
2023-01-01T07:41:19.547Z,2
2023-01-01T07:42:19.541Z,2
2023-01-01T07:43:19.546Z,2
2023-01-01T07:44:19.539Z,2
2023-01-01T07:45:19.540Z,2
2023-01-01T07:46:19.630Z,2
2023-01-01T07:47:19.564Z,2
2023-01-01T07:48:19.550Z,2
2023-01-01T07:49:19.536Z,2
2023-01-01T07:50:19.552Z,2
2023-01-01T07:52:19.554Z,2
2023-01-01T07:53:19.549Z,2
2023-01-01T07:54:19.553Z,2
2023-01-01T07:55:19.552Z,2
2023-01-01T07:56:19.588Z,2
2023-01-01T07:57:19.560Z,2
2023-01-01T07:58:19.556Z,2
2023-01-01T07:59:20.673Z,2
2023-01-01T08:00:19.622Z,2
2023-01-01T08:01:19.747Z,2
2023-01-01T08:02:19.647Z,2
2023-01-01T08:03:19.635Z,2
2023-01-01T08:04:19.870Z,2
2023-01-01T08:05:26.097Z,2
2023-01-01T08:06:19.662Z,2
2023-01-01T08:07:19.600Z,2
2023-01-01T08:08:19.605Z,2
2023-01-01T08:09:19.607Z,2
2023-01-01T08:10:19.619Z,2
2023-01-01T08:11:19.599Z,2
2023-01-01T08:12:19.599Z,2
2023-01-01T08:13:19.600Z,2
2023-01-01T08:14:19.614Z,2
2023-01-01T08:15:19.597Z,3
2023-01-01T08:16:19.686Z,2
2023-01-01T08:17:19.616Z,2
2023-01-01T08:18:19.661Z,3
2023-01-01T08:19:19.605Z,2
2023-01-01T08:20:19.600Z,2
2023-01-01T08:21:19.626Z,2
2023-01-01T08:22:19.613Z,2
2023-01-01T08:23:19.685Z,2
2023-01-01T08:24:19.710Z,2
2023-01-01T08:25:19.692Z,2
2023-01-01T08:26:19.676Z,2
2023-01-01T08:27:19.691Z,2
2023-01-01T08:28:19.696Z,2
2023-01-01T08:29:19.704Z,2
2023-01-01T08:30:19.684Z,2
2023-01-01T08:31:19.706Z,2
2023-01-01T08:32:19.689Z,2
2023-01-01T08:33:19.711Z,2
2023-01-01T08:34:19.695Z,3
2023-01-01T08:35:19.698Z,3
2023-01-01T08:36:19.712Z,2
2023-01-01T08:37:19.708Z,2
2023-01-01T08:38:19.693Z,3
2023-01-01T08:39:19.883Z,2
2023-01-01T08:43:02.241Z,2
2023-01-01T08:45:30.513Z,2
2023-01-01T08:46:44.674Z,2
2023-01-01T08:49:49.942Z,2
2023-01-01T08:51:04.064Z,2
2023-01-01T08:51:41.133Z,2
2023-01-01T08:56:00.576Z,2
2023-01-01T08:59:43.305Z,2
2023-01-01T09:08:22.281Z,2
2023-01-01T09:10:50.513Z,2
2023-01-01T09:12:04.640Z,2
2023-01-01T09:17:01.182Z,3
2023-01-01T09:20:43.582Z,2
2023-01-01T09:23:11.162Z,2
2023-01-01T09:25:19.614Z,3
2023-01-01T09:26:19.586Z,3
2023-01-01T09:27:19.583Z,2
2023-01-01T09:28:25.411Z,2
2023-01-01T09:29:19.579Z,2
2023-01-01T09:30:19.640Z,2
2023-01-01T09:31:19.652Z,2
2023-01-01T09:32:19.589Z,3
2023-01-01T09:33:19.607Z,2
2023-01-01T09:34:19.591Z,2
2023-01-01T09:35:19.585Z,3
2023-01-01T09:36:19.588Z,2
2023-01-01T09:37:19.600Z,3
2023-01-01T09:38:19.668Z,3
2023-01-01T09:39:19.605Z,2
2023-01-01T09:40:19.590Z,2
2023-01-01T09:41:19.592Z,2
2023-01-01T09:42:19.594Z,2
2023-01-01T09:43:19.590Z,2
2023-01-01T09:44:19.582Z,2
2023-01-01T09:45:19.593Z,2
2023-01-01T09:46:19.705Z,3
2023-01-01T09:47:19.581Z,2
2023-01-01T09:48:19.594Z,2
2023-01-01T09:49:19.585Z,2
2023-01-01T09:50:19.599Z,2
2023-01-01T09:51:19.586Z,2
2023-01-01T09:52:19.634Z,2
2023-01-01T09:53:19.595Z,2
2023-01-01T09:54:19.588Z,2
2023-01-01T09:55:19.600Z,2
2023-01-01T09:56:19.584Z,2
2023-01-01T09:57:20.332Z,2
2023-01-01T09:58:19.594Z,3
2023-01-01T09:59:19.588Z,3
2023-01-01T10:00:19.600Z,2
2023-01-01T10:01:19.738Z,3
2023-01-01T10:02:19.724Z,2
2023-01-01T10:03:19.597Z,2
2023-01-01T10:04:19.661Z,2
2023-01-01T10:05:19.644Z,3
2023-01-01T10:06:19.641Z,2
2023-01-01T10:07:19.711Z,2
2023-01-01T10:08:23.145Z,2
2023-01-01T10:09:19.647Z,2
2023-01-01T10:10:19.636Z,2
2023-01-01T10:11:19.656Z,2
2023-01-01T10:12:19.657Z,3
2023-01-01T10:13:19.650Z,2
2023-01-01T10:14:19.640Z,3
2023-01-01T10:15:19.679Z,3
2023-01-01T10:16:24.387Z,3
2023-01-01T10:17:19.652Z,3
2023-01-01T10:18:19.646Z,2
2023-01-01T10:19:19.676Z,2
2023-01-01T10:20:19.655Z,3
2023-01-01T10:21:19.732Z,3
2023-01-01T10:22:19.742Z,2
2023-01-01T10:23:19.775Z,2
2023-01-01T10:24:19.775Z,2
2023-01-01T10:26:19.743Z,2
2023-01-01T10:27:19.754Z,2
2023-01-01T10:28:19.749Z,2
2023-01-01T10:29:19.740Z,2
2023-01-01T10:30:19.743Z,2
2023-01-01T10:31:19.793Z,3
2023-01-01T10:32:19.744Z,2
2023-01-01T10:33:19.749Z,2
2023-01-01T10:34:19.724Z,3
2023-01-01T10:35:22.904Z,2
2023-01-01T10:36:19.735Z,2
2023-01-01T10:37:20.011Z,2
2023-01-01T10:39:19.661Z,2
2023-01-01T10:40:19.661Z,2
2023-01-01T10:41:20.354Z,2
2023-01-01T10:42:19.654Z,2
2023-01-01T10:43:19.666Z,2
2023-01-01T10:44:19.662Z,2
2023-01-01T10:45:19.672Z,2
2023-01-01T10:46:19.807Z,2
2023-01-01T10:47:19.660Z,2
2023-01-01T10:48:19.668Z,2
2023-01-01T10:49:19.685Z,2
2023-01-01T10:50:19.690Z,2
2023-01-01T10:51:19.664Z,3
2023-01-01T10:52:19.659Z,2
2023-01-01T10:53:19.671Z,3
2023-01-01T10:54:19.674Z,2
2023-01-01T10:55:19.666Z,2
2023-01-01T10:56:19.674Z,2
2023-01-01T10:57:19.660Z,2
2023-01-01T10:58:19.669Z,2
2023-01-01T10:59:19.676Z,4
2023-01-01T11:00:19.672Z,2
2023-01-01T11:01:19.811Z,3
2023-01-01T11:02:19.953Z,2
2023-01-01T11:03:19.745Z,2
2023-01-01T11:04:19.682Z,2
2023-01-01T11:05:22.032Z,2
2023-01-01T11:06:19.678Z,2
2023-01-01T11:07:19.684Z,2
2023-01-01T11:08:19.672Z,2
2023-01-01T11:09:19.685Z,2
2023-01-01T11:10:19.791Z,2
2023-01-01T11:11:19.670Z,3
2023-01-01T11:12:54.571Z,2
2023-01-01T11:13:19.680Z,2
2023-01-01T11:14:19.669Z,2
2023-01-01T11:15:19.673Z,2
2023-01-01T11:16:19.689Z,2
2023-01-01T11:17:20.058Z,3
2023-01-01T11:18:19.671Z,2
2023-01-01T11:19:19.686Z,2
2023-01-01T11:20:19.754Z,2
2023-01-01T11:21:19.707Z,2
2023-01-01T11:22:19.722Z,2
2023-01-01T11:23:19.679Z,2
2023-01-01T11:24:19.680Z,2
2023-01-01T11:25:19.769Z,2
2023-01-01T11:26:19.760Z,2
2023-01-01T11:27:19.763Z,2
2023-01-01T11:28:19.765Z,2
2023-01-01T11:29:19.764Z,2
2023-01-01T11:30:19.811Z,2
2023-01-01T11:31:19.856Z,2
2023-01-01T11:32:19.763Z,3
2023-01-01T11:33:19.768Z,2
2023-01-01T11:34:19.761Z,2
2023-01-01T11:35:19.763Z,2
2023-01-01T11:36:22.197Z,2
2023-01-01T11:37:19.768Z,2
2023-01-01T11:38:23.169Z,2
2023-01-01T11:39:19.766Z,3
2023-01-01T11:40:19.832Z,2
2023-01-01T11:41:19.968Z,2
2023-01-01T11:45:02.326Z,2
2023-01-01T11:47:30.598Z,2
2023-01-01T11:48:44.710Z,2
2023-01-01T11:51:50.066Z,3
2023-01-01T11:53:04.133Z,2
2023-01-01T11:53:41.207Z,2
2023-01-01T11:58:00.626Z,2
2023-01-01T12:02:20.506Z,2
2023-01-01T12:05:30.587Z,3
2023-01-01T12:06:19.733Z,2
2023-01-01T12:07:19.672Z,3
2023-01-01T12:08:19.640Z,2
2023-01-01T12:09:19.657Z,2
2023-01-01T12:10:19.654Z,3
2023-01-01T12:11:19.653Z,2
2023-01-01T12:12:19.646Z,3
2023-01-01T12:13:19.650Z,2
2023-01-01T12:14:19.653Z,2
2023-01-01T12:15:19.719Z,2
2023-01-01T12:16:19.706Z,2
2023-01-01T12:17:19.651Z,2
2023-01-01T12:18:19.659Z,2
2023-01-01T12:19:19.679Z,2
2023-01-01T12:20:19.660Z,2
2023-01-01T12:21:19.653Z,3
2023-01-01T12:22:19.651Z,2
2023-01-01T12:23:19.685Z,2
2023-01-01T12:24:19.655Z,2
2023-01-01T12:25:19.671Z,2
2023-01-01T12:26:19.661Z,2
2023-01-01T12:27:19.659Z,2
2023-01-01T12:28:19.672Z,3
2023-01-01T12:29:19.664Z,2
2023-01-01T12:30:19.672Z,2
2023-01-01T12:31:19.753Z,2
2023-01-01T12:32:19.669Z,2
2023-01-01T12:33:19.650Z,2
2023-01-01T12:34:19.656Z,2
2023-01-01T12:35:19.703Z,2
2023-01-01T12:36:19.668Z,2
2023-01-01T12:37:19.660Z,2
2023-01-01T12:38:19.692Z,3
2023-01-01T12:39:19.663Z,2
2023-01-01T12:40:24.315Z,2
2023-01-01T12:41:19.657Z,2
2023-01-01T12:42:19.653Z,2
2023-01-01T12:43:19.980Z,2
2023-01-01T12:44:19.663Z,3
2023-01-01T12:45:19.698Z,2
2023-01-01T12:46:19.753Z,2
2023-01-01T12:48:19.717Z,2
2023-01-01T12:49:19.711Z,2
2023-01-01T12:50:19.838Z,2
2023-01-01T12:51:19.703Z,2
2023-01-01T12:52:19.708Z,2
2023-01-01T12:53:19.720Z,2
2023-01-01T12:54:19.705Z,2
2023-01-01T12:55:19.725Z,3
2023-01-01T12:56:23.122Z,2
2023-01-01T12:57:19.721Z,2
2023-01-01T12:58:19.721Z,2
2023-01-01T12:59:19.718Z,3
2023-01-01T13:00:19.725Z,3
2023-01-01T13:01:19.815Z,3
2023-01-01T13:02:20.040Z,2
2023-01-01T13:03:19.935Z,2
2023-01-01T13:04:19.807Z,2
2023-01-01T13:05:19.806Z,2
2023-01-01T13:06:24.885Z,2
2023-01-01T13:07:19.816Z,2
2023-01-01T13:08:19.814Z,2
2023-01-01T13:09:19.805Z,2
2023-01-01T13:10:19.810Z,2
2023-01-01T13:11:19.813Z,2
2023-01-01T13:12:19.811Z,3
2023-01-01T13:13:19.802Z,3
2023-01-01T13:14:19.807Z,2
2023-01-01T13:15:19.815Z,2
2023-01-01T13:16:19.879Z,2
2023-01-01T13:17:19.809Z,2
2023-01-01T13:18:19.895Z,2
2023-01-01T13:19:20.001Z,2
2023-01-01T13:23:02.370Z,2
2023-01-01T13:25:30.616Z,2
2023-01-01T13:26:44.769Z,3
2023-01-01T13:29:50.051Z,2
2023-01-01T13:31:41.395Z,3
2023-01-01T13:36:00.676Z,2
2023-01-01T13:39:43.444Z,2
2023-01-01T13:42:11.697Z,2
2023-01-01T13:48:22.355Z,2
2023-01-01T13:52:07.087Z,3
2023-01-01T13:55:19.716Z,3
2023-01-01T13:56:19.707Z,3
2023-01-01T13:57:19.687Z,3
2023-01-01T13:59:19.694Z,3
2023-01-01T14:00:19.692Z,2
2023-01-01T14:01:19.848Z,3
2023-01-01T14:02:19.800Z,2
2023-01-01T14:03:19.703Z,3
2023-01-01T14:04:19.710Z,2
2023-01-01T14:05:19.956Z,3
2023-01-01T14:06:19.699Z,2
2023-01-01T14:07:49.462Z,3
2023-01-01T14:08:19.701Z,2
2023-01-01T14:09:19.710Z,3
2023-01-01T14:10:19.698Z,2
2023-01-01T14:11:19.705Z,3
2023-01-01T14:12:19.695Z,2
2023-01-01T14:13:21.071Z,3
2023-01-01T14:14:19.703Z,3
2023-01-01T14:15:19.694Z,3
2023-01-01T14:16:19.756Z,2
2023-01-01T14:17:19.712Z,3
2023-01-01T14:18:19.696Z,3
2023-01-01T14:19:19.695Z,3
2023-01-01T14:20:19.724Z,3
2023-01-01T14:21:19.707Z,3
2023-01-01T14:22:19.702Z,3
2023-01-01T14:23:19.729Z,3
2023-01-01T14:24:19.704Z,3
2023-01-01T14:25:19.701Z,2
2023-01-01T14:26:19.717Z,3
2023-01-01T14:27:19.757Z,2
2023-01-01T14:28:19.697Z,3
2023-01-01T14:29:19.713Z,2
2023-01-01T14:30:19.711Z,3
2023-01-01T14:31:19.763Z,2
2023-01-01T14:32:19.773Z,2
2023-01-01T14:33:19.709Z,2
2023-01-01T14:34:19.698Z,3
2023-01-01T14:35:19.719Z,2
2023-01-01T14:36:19.758Z,2
2023-01-01T14:37:19.748Z,3
2023-01-01T14:38:19.751Z,3
2023-01-01T14:39:25.429Z,3
2023-01-01T14:40:19.757Z,3
2023-01-01T14:41:19.748Z,2
2023-01-01T14:42:19.766Z,3
2023-01-01T14:43:19.753Z,2
2023-01-01T14:44:19.769Z,2
2023-01-01T14:45:19.775Z,3
2023-01-01T14:46:19.782Z,2
2023-01-01T14:47:19.758Z,3
2023-01-01T14:48:19.752Z,2
2023-01-01T14:49:19.755Z,3
2023-01-01T14:51:19.761Z,2
2023-01-01T14:52:20.006Z,2
2023-01-01T14:53:19.846Z,3
2023-01-01T14:54:19.846Z,2
2023-01-01T14:55:19.858Z,2
2023-01-01T14:56:19.842Z,3
2023-01-01T14:57:19.903Z,3
2023-01-01T14:58:19.863Z,3
2023-01-01T14:59:19.865Z,2
2023-01-01T15:00:19.852Z,3
2023-01-01T15:01:19.956Z,3
2023-01-01T15:02:20.080Z,2
2023-01-01T15:03:19.927Z,2
2023-01-01T15:04:19.843Z,2
2023-01-01T15:05:19.846Z,3
2023-01-01T15:06:19.931Z,3
2023-01-01T15:07:19.869Z,3
2023-01-01T15:08:19.867Z,2
2023-01-01T15:09:20.056Z,2
2023-01-01T15:13:02.414Z,2
2023-01-01T15:15:30.675Z,2
2023-01-01T15:16:44.843Z,3
2023-01-01T15:19:50.091Z,2
2023-01-01T15:21:04.260Z,2
2023-01-01T15:21:41.279Z,2
2023-01-01T15:26:00.715Z,3
2023-01-01T15:30:20.530Z,2
2023-01-01T15:34:02.940Z,2
2023-01-01T15:37:45.340Z,2
2023-01-01T15:42:41.918Z,2
2023-01-01T15:44:30.594Z,2
2023-01-01T15:46:19.783Z,2
2023-01-01T15:47:19.727Z,2
2023-01-01T15:48:19.738Z,2
2023-01-01T15:49:19.728Z,3
2023-01-01T15:50:19.747Z,2
2023-01-01T15:51:19.724Z,3
2023-01-01T15:52:19.735Z,2
2023-01-01T15:53:19.759Z,3
2023-01-01T15:54:19.738Z,2
2023-01-01T15:55:19.736Z,2
2023-01-01T15:56:19.722Z,3
2023-01-01T15:57:19.746Z,2
2023-01-01T15:58:19.770Z,3
2023-01-01T15:59:19.748Z,3
2023-01-01T16:00:19.728Z,2
2023-01-01T16:01:19.839Z,2
2023-01-01T16:02:19.976Z,2
2023-01-01T16:03:20.136Z,3
2023-01-01T16:04:27.779Z,2
2023-01-01T16:05:19.740Z,2
2023-01-01T16:06:19.737Z,2
2023-01-01T16:07:19.754Z,3
2023-01-01T16:08:19.739Z,2
2023-01-01T16:09:19.745Z,2
2023-01-01T16:10:19.902Z,3
2023-01-01T16:11:19.742Z,3
2023-01-01T16:12:19.746Z,3
2023-01-01T16:13:19.742Z,3
2023-01-01T16:14:19.757Z,3
2023-01-01T16:15:19.741Z,2
2023-01-01T16:16:19.766Z,2
2023-01-01T16:17:19.754Z,3
2023-01-01T16:18:19.768Z,2
2023-01-01T16:19:19.750Z,3
2023-01-01T16:20:19.786Z,3
2023-01-01T16:21:19.743Z,3
2023-01-01T16:22:19.745Z,3
2023-01-01T16:23:19.751Z,3
2023-01-01T16:24:19.758Z,3
2023-01-01T16:25:19.794Z,3
2023-01-01T16:26:19.757Z,3
2023-01-01T16:27:19.793Z,2
2023-01-01T16:28:19.793Z,5
2023-01-01T16:29:19.836Z,6
2023-01-01T16:30:19.889Z,7
2023-01-01T16:31:19.797Z,7
2023-01-01T16:32:19.805Z,7
2023-01-01T16:33:19.807Z,8
2023-01-01T16:34:19.810Z,8
2023-01-01T16:35:19.799Z,9
2023-01-01T16:36:19.799Z,8
2023-01-01T16:37:19.803Z,7
2023-01-01T16:38:19.802Z,6
2023-01-01T16:39:19.825Z,7
2023-01-01T16:40:19.829Z,10
2023-01-01T16:41:19.803Z,11
2023-01-01T16:42:19.844Z,8
2023-01-01T16:43:19.890Z,5
2023-01-01T16:44:19.892Z,4
2023-01-01T16:45:19.901Z,3
2023-01-01T16:46:19.923Z,3
2023-01-01T16:47:19.890Z,3
2023-01-01T16:48:19.953Z,3
2023-01-01T16:49:19.898Z,3
2023-01-01T16:50:19.892Z,3
2023-01-01T16:51:19.898Z,3
2023-01-01T16:52:19.901Z,3
2023-01-01T16:53:19.916Z,3
2023-01-01T16:54:19.995Z,2
2023-01-01T16:55:19.893Z,2
2023-01-01T16:56:19.895Z,2
2023-01-01T16:57:19.891Z,2
2023-01-01T16:58:48.554Z,2
2023-01-01T16:59:20.212Z,2
2023-01-01T17:03:02.488Z,2
2023-01-01T17:05:30.700Z,3
2023-01-01T17:06:44.825Z,3
2023-01-01T17:09:50.156Z,2
2023-01-01T17:11:41.327Z,3
2023-01-01T17:16:00.870Z,3
2023-01-01T17:19:43.513Z,3
2023-01-01T17:22:11.781Z,3
2023-01-01T17:26:19.838Z,3
2023-01-01T17:27:19.772Z,3
2023-01-01T17:28:19.795Z,2
2023-01-01T17:29:19.776Z,2
2023-01-01T17:30:19.808Z,3
2023-01-01T17:31:19.810Z,2
2023-01-01T17:32:19.782Z,2
2023-01-01T17:33:19.798Z,2
2023-01-01T17:34:19.780Z,3
2023-01-01T17:35:19.794Z,3
2023-01-01T17:36:19.837Z,3
2023-01-01T17:37:19.774Z,3
2023-01-01T17:38:19.782Z,3
2023-01-01T17:39:19.792Z,3
2023-01-01T17:40:19.786Z,3
2023-01-01T17:41:19.802Z,3
2023-01-01T17:42:19.787Z,3
2023-01-01T17:43:19.780Z,4
2023-01-01T17:44:19.785Z,4
2023-01-01T17:45:19.793Z,4
2023-01-01T17:46:19.847Z,4
2023-01-01T17:47:19.817Z,5
2023-01-01T17:48:19.787Z,4
2023-01-01T17:49:19.783Z,4
2023-01-01T17:50:19.783Z,4
2023-01-01T17:51:19.798Z,4
2023-01-01T17:52:19.778Z,3
2023-01-01T17:53:19.790Z,4
2023-01-01T17:54:19.784Z,4
2023-01-01T17:55:19.789Z,4
2023-01-01T17:56:19.792Z,4
2023-01-01T17:57:19.782Z,4
2023-01-01T17:58:19.787Z,4
2023-01-01T17:59:19.791Z,4
2023-01-01T18:00:19.791Z,3
2023-01-01T18:01:19.998Z,3
2023-01-01T18:02:19.999Z,3
2023-01-01T18:03:19.880Z,3
2023-01-01T18:04:19.798Z,3
2023-01-01T18:05:19.810Z,3
2023-01-01T18:06:19.837Z,3
2023-01-01T18:07:19.844Z,2
2023-01-01T18:08:19.847Z,2
2023-01-01T18:09:19.835Z,2
2023-01-01T18:10:19.891Z,3
2023-01-01T18:11:19.840Z,3
2023-01-01T18:12:19.849Z,3
2023-01-01T18:13:19.840Z,3
2023-01-01T18:14:24.572Z,3
2023-01-01T18:15:19.903Z,3
2023-01-01T18:16:19.883Z,3
2023-01-01T18:17:19.848Z,3
2023-01-01T18:18:19.848Z,3
2023-01-01T18:19:19.889Z,3
2023-01-01T18:20:19.993Z,3
2023-01-01T18:21:19.840Z,3
2023-01-01T18:22:19.936Z,3
2023-01-01T18:23:19.934Z,3
2023-01-01T18:24:19.952Z,3
2023-01-01T18:26:19.939Z,3
2023-01-01T18:27:20.000Z,3
2023-01-01T18:28:19.934Z,3
2023-01-01T18:29:19.920Z,3
2023-01-01T18:30:19.935Z,2
2023-01-01T18:31:20.036Z,3
2023-01-01T18:32:19.949Z,2
2023-01-01T18:33:19.937Z,2
2023-01-01T18:34:19.987Z,3
2023-01-01T18:35:19.932Z,2
2023-01-01T18:36:19.937Z,3
2023-01-01T18:37:19.932Z,3
2023-01-01T18:38:19.939Z,2
2023-01-01T18:39:20.350Z,3
2023-01-01T18:43:02.510Z,3
2023-01-01T18:45:30.744Z,3
2023-01-01T18:46:44.931Z,3
2023-01-01T18:49:50.192Z,3
2023-01-01T18:51:04.295Z,3
2023-01-01T18:51:41.379Z,3
2023-01-01T18:56:00.796Z,3
2023-01-01T19:00:20.618Z,3
2023-01-01T19:04:04.518Z,3
2023-01-01T19:05:44.332Z,3
2023-01-01T19:07:19.814Z,3
2023-01-01T19:08:19.803Z,3
2023-01-01T19:09:19.853Z,3
2023-01-01T19:10:19.824Z,3
2023-01-01T19:11:19.807Z,3
2023-01-01T19:12:19.819Z,3
2023-01-01T19:13:19.828Z,3
2023-01-01T19:14:19.808Z,3
2023-01-01T19:15:19.850Z,3
2023-01-01T19:16:23.914Z,4
2023-01-01T19:17:19.814Z,3
2023-01-01T19:18:20.109Z,4
2023-01-01T19:19:20.044Z,4
2023-01-01T19:20:19.816Z,4
2023-01-01T19:21:19.823Z,4
2023-01-01T19:22:19.866Z,4
2023-01-01T19:23:19.853Z,4
2023-01-01T19:24:19.829Z,4
2023-01-01T19:25:19.823Z,4
2023-01-01T19:27:19.837Z,4
2023-01-01T19:28:19.854Z,3
2023-01-01T19:29:19.811Z,3
2023-01-01T19:30:19.821Z,3
2023-01-01T19:31:19.915Z,3
2023-01-01T19:32:19.799Z,4
2023-01-01T19:33:19.828Z,4
2023-01-01T19:34:19.820Z,4
2023-01-01T19:35:19.819Z,4
2023-01-01T19:36:19.827Z,4
2023-01-01T19:37:19.826Z,4
2023-01-01T19:38:19.832Z,4
2023-01-01T19:39:19.837Z,4
2023-01-01T19:40:19.823Z,4
2023-01-01T19:41:19.829Z,4
2023-01-01T19:42:19.823Z,4
2023-01-01T19:43:19.820Z,4
2023-01-01T19:44:24.604Z,4
2023-01-01T19:45:19.816Z,4
2023-01-01T19:46:19.871Z,4
2023-01-01T19:47:19.846Z,4
2023-01-01T19:48:19.824Z,4
2023-01-01T19:49:20.117Z,4
2023-01-01T19:50:19.873Z,4
2023-01-01T19:51:19.867Z,4
2023-01-01T19:52:19.894Z,4
2023-01-01T19:53:19.877Z,4
2023-01-01T19:54:19.880Z,4
2023-01-01T19:55:19.873Z,4
2023-01-01T19:56:19.881Z,4
2023-01-01T19:57:19.884Z,4
2023-01-01T19:58:19.969Z,4
2023-01-01T19:59:19.861Z,4
2023-01-01T20:00:19.873Z,4
2023-01-01T20:01:20.041Z,4
2023-01-01T20:02:45.506Z,4
2023-01-01T20:03:52.192Z,5
2023-01-01T20:04:20.042Z,4
2023-01-01T20:05:19.963Z,4
2023-01-01T20:06:19.968Z,5
2023-01-01T20:07:19.964Z,4
2023-01-01T20:08:19.985Z,4
2023-01-01T20:09:19.976Z,5
2023-01-01T20:10:19.986Z,4
2023-01-01T20:11:19.964Z,4
2023-01-01T20:12:19.967Z,4
2023-01-01T20:13:19.974Z,4
2023-01-01T20:14:19.962Z,4
2023-01-01T20:15:19.972Z,4
2023-01-01T20:16:19.986Z,4
2023-01-01T20:17:19.977Z,4
2023-01-01T20:18:19.979Z,4
2023-01-01T20:19:19.971Z,5
2023-01-01T20:20:20.035Z,5
2023-01-01T20:21:25.647Z,5
2023-01-01T20:25:02.528Z,5
2023-01-01T20:27:30.771Z,4
2023-01-01T20:28:44.881Z,5
2023-01-01T20:31:50.272Z,5
2023-01-01T20:33:41.398Z,5
2023-01-01T20:35:09.687Z,4
2023-01-01T20:35:31.579Z,4
2023-01-01T20:36:19.849Z,4
2023-01-01T20:37:19.852Z,4
2023-01-01T20:38:19.847Z,4
2023-01-01T20:39:19.861Z,4
2023-01-01T20:40:19.845Z,4
2023-01-01T20:41:19.844Z,4
2023-01-01T20:42:20.635Z,4
2023-01-01T20:43:19.875Z,4
2023-01-01T20:44:19.846Z,4
2023-01-01T20:45:19.858Z,4
2023-01-01T20:46:19.849Z,4
2023-01-01T20:47:19.851Z,4
2023-01-01T20:48:20.111Z,4
2023-01-01T20:49:19.867Z,4
2023-01-01T20:50:19.978Z,4
2023-01-01T20:51:19.861Z,4
2023-01-01T20:52:19.877Z,4
2023-01-01T20:53:19.850Z,4
2023-01-01T20:54:19.869Z,4
2023-01-01T20:55:19.905Z,4
2023-01-01T20:56:19.851Z,4
2023-01-01T20:57:19.864Z,4
2023-01-01T20:58:19.865Z,4
2023-01-01T20:59:34.188Z,4
2023-01-01T21:00:19.906Z,4
2023-01-01T21:01:19.966Z,4
2023-01-01T21:02:20.059Z,4
2023-01-01T21:03:19.875Z,4
2023-01-01T21:04:19.851Z,4
2023-01-01T21:05:19.859Z,4
2023-01-01T21:06:24.030Z,4
2023-01-01T21:07:19.850Z,4
2023-01-01T21:08:19.951Z,4
2023-01-01T21:09:19.859Z,4
2023-01-01T21:10:19.865Z,4
2023-01-01T21:11:19.864Z,5
2023-01-01T21:12:19.907Z,4
2023-01-01T21:13:19.862Z,4
2023-01-01T21:14:19.855Z,4
2023-01-01T21:15:19.861Z,4
2023-01-01T21:16:19.909Z,5
2023-01-01T21:17:19.856Z,4
2023-01-01T21:18:19.908Z,4
2023-01-01T21:19:26.072Z,4
2023-01-01T21:21:19.944Z,4
2023-01-01T21:22:19.920Z,4
2023-01-01T21:23:19.917Z,4
2023-01-01T21:24:19.931Z,4
2023-01-01T21:25:49.919Z,5
2023-01-01T21:26:19.918Z,4
2023-01-01T21:27:19.909Z,4
2023-01-01T21:28:19.908Z,4
2023-01-01T21:29:19.925Z,5
2023-01-01T21:30:19.909Z,5
2023-01-01T21:31:19.946Z,4
2023-01-01T21:32:19.962Z,4
2023-01-01T21:33:19.923Z,5
2023-01-01T21:34:20.056Z,4
2023-01-01T21:35:19.996Z,4
2023-01-01T21:36:20.016Z,4
2023-01-01T21:37:20.000Z,4
2023-01-01T21:39:20.011Z,4
2023-01-01T21:40:19.997Z,5
2023-01-01T21:41:20.002Z,5
2023-01-01T21:42:20.015Z,6
2023-01-01T21:43:20.003Z,5
2023-01-01T21:45:20.000Z,5
2023-01-01T21:46:20.057Z,5
2023-01-01T21:47:20.007Z,5
2023-01-01T21:48:20.071Z,4
2023-01-01T21:49:19.999Z,5
2023-01-01T21:50:20.201Z,5
2023-01-01T21:54:02.581Z,5
2023-01-01T21:56:30.815Z,4
2023-01-01T21:57:44.939Z,5
2023-01-01T22:00:50.362Z,6
2023-01-01T22:02:41.627Z,5
2023-01-01T22:07:00.879Z,5
2023-01-01T22:10:43.626Z,4
2023-01-01T22:23:05.760Z,4
2023-01-01T22:28:00.796Z,4
2023-01-01T22:30:19.881Z,6
2023-01-01T22:31:19.956Z,6
2023-01-01T22:32:19.948Z,6
2023-01-01T22:33:19.885Z,7
2023-01-01T22:34:19.879Z,6
2023-01-01T22:35:19.889Z,6
2023-01-01T22:36:19.887Z,5
2023-01-01T22:37:19.999Z,6
2023-01-01T22:38:19.887Z,5
2023-01-01T22:39:19.892Z,4
2023-01-01T22:40:19.881Z,4
2023-01-01T22:41:19.882Z,5
2023-01-01T22:42:19.893Z,4
2023-01-01T22:43:19.884Z,4
2023-01-01T22:44:19.888Z,5